Reeseville, WI (53579)

4:25 PM CST on December 04, 2016 (GMT -0600)
Ruby Street | | Change Station
Active Advisory: Winter Weather Advisory Active Notice: Local Storm Report

Elev 823 ft 43.31 °N, 88.85 °W | Updated 10 minutes ago

Light Snow
Light Snow
31.3 °F
Feels Like 31 °F
N
0.0
Wind Variable Wind from SSE
Gusts 0.0 mph

Today
High -- | Low -- °F
--% Chance of Precip.
Yesterday
High -- | Low -- °F
Precip. -- in
Pressure 29.88 in
Visibility 0.8 miles
Clouds Mostly Cloudy 500 ft
Overcast 1000 ft
Windchill 31 °F
Dew Point 30 °F
Humidity 93%
Rainfall 0.00 in
Snow Depth Not available.
7:11 AM 4:19 PM
Waxing Crescent, 26% visible
METAR KRYV 042215Z AUTO 00000KT 3/4SM -SN BKN005 OVC010 M01/M01 A2988 RMK AO2 P0001 T10071007
Pressure 29.88 in
Visibility 0.8 miles
Clouds Mostly Cloudy 500 ft
Overcast 1000 ft
Windchill 31 °F
Dew Point 30 °F
Humidity 93%
Rainfall 0.00 in
Snow Depth Not available.
7:11 AM 4:19 PM
Waxing Crescent, 26% visible
METAR KRYV 042215Z AUTO 00000KT 3/4SM -SN BKN005 OVC010 M01/M01 A2988 RMK AO2 P0001 T10071007

10-Day Weather Forecast

Almanac

Astronomy

Dec. 04, 2016 Rise Set
Actual Time
Civil Twilight
Nautical Twilight
Astronomical Twilight
Moon
Length of Visible Light
Length of Day
Tomorrow will be .
, % of the Moon is Illuminated

Today's Extremes

State Highs State Lows

Community

WunderPhotos

Upload Photos

1,955,684 photos uploaded!

WunderBlog® & News

Nearby

Air Quality

  Air Quality AQ Index Pollutant
Not available.

Snow Depth

Station Depth Elevation

Earthquake Activity

City Distance Mag. Time & Date
Minimum magnitude displayed is 2.5.

Coastal Water Temperatures

Place Temperature

Stations

Nearby Weather Stations

Station Location Temp. Windchill Dew Point Humidity Wind Precip. Elev Updated Type
                   

Watches & Warnings

Winter Weather Advisory
Issued: 2:56 PM CST Dec. 4, 2016 – National Weather Service

... Winter Weather Advisory now in effect until 9 PM CST this
evening...

The Winter Weather Advisory is now in effect until 9 PM CST this
evening.

* Snow accumulations... additional amounts of 1 to 2 inches.

* Impacts... reduced visibility and slippery spots on untreated
roads creating hazardous travel.

Precautionary/preparedness actions...

A Winter Weather Advisory for snow means that periods of snow
will cause primarily travel difficulties. Be prepared for snow
covered roads and limited visibilities... and use caution while
driving.